createdAt,value
2019-01-17T00:00:53.858Z,9.19
2019-01-17T00:03:51.794Z,9.08
2019-01-17T00:06:41.657Z,9.06
2019-01-17T00:09:25.084Z,9.04
2019-01-17T00:12:12.605Z,9.19
2019-01-17T00:15:07.581Z,9.09
2019-01-17T00:17:55.313Z,9.09
2019-01-17T00:20:43.746Z,8.75
2019-01-17T00:23:38.682Z,8.53
2019-01-17T00:26:26.510Z,8.78
2019-01-17T00:29:19.307Z,8.75
2019-01-17T00:32:05.693Z,9.14
2019-01-17T00:35:00.632Z,9.27
2019-01-17T00:37:39.173Z,9.50
2019-01-17T00:40:32.867Z,9.19
2019-01-17T00:43:24.682Z,9.78
2019-01-17T00:46:10.111Z,10.07
2019-01-17T00:49:11.335Z,10.18
2019-01-17T00:51:59.086Z,10.59
2019-01-17T00:54:47.059Z,10.32
2019-01-17T00:57:43.164Z,10.01
2019-01-17T01:00:24.388Z,9.70
2019-01-17T01:03:14.726Z,10.10
2019-01-17T01:06:06.900Z,10.10
2019-01-17T01:09:11.048Z,10.25
2019-01-17T01:12:03.011Z,10.28
2019-01-17T01:14:51.750Z,9.89
2019-01-17T01:17:39.573Z,9.85
2019-01-17T01:20:29.611Z,9.51
2019-01-17T01:23:22.365Z,9.22
2019-01-17T01:26:14.485Z,9.53
2019-01-17T01:29:02.073Z,9.42
2019-01-17T01:31:53.917Z,8.85
2019-01-17T01:34:44.108Z,9.06
2019-01-17T01:37:29.049Z,9.14
2019-01-17T01:40:13.121Z,9.08
2019-01-17T01:43:01.321Z,9.31
2019-01-17T01:45:56.049Z,8.91
2019-01-17T01:48:44.998Z,8.80
2019-01-17T01:51:38.393Z,8.96
2019-01-17T01:54:08.445Z,8.94
2019-01-17T01:56:38.444Z,9.16
2019-01-17T01:59:08.545Z,9.25
2019-01-17T02:01:38.462Z,9.36
2019-01-17T02:04:08.518Z,9.48
2019-01-17T02:06:39.827Z,9.87
2019-01-17T02:09:10.041Z,9.92
2019-01-17T02:11:40.037Z,9.27
2019-01-17T02:14:10.268Z,8.85
2019-01-17T02:16:40.310Z,8.28
2019-01-17T02:19:10.333Z,8.00
2019-01-17T02:21:40.332Z,8.01
2019-01-17T02:24:10.248Z,8.10
2019-01-17T02:26:40.315Z,8.08
2019-01-17T02:29:10.329Z,8.45
2019-01-17T02:31:40.340Z,8.03
2019-01-17T02:34:10.375Z,8.22
2019-01-17T02:36:40.480Z,8.37
2019-01-17T02:39:10.468Z,8.13
2019-01-17T02:41:41.133Z,8.13
2019-01-17T02:44:13.112Z,8.08
2019-01-17T02:46:43.211Z,7.98
2019-01-17T02:49:13.197Z,8.74
2019-01-17T02:51:44.812Z,8.21
2019-01-17T02:54:14.704Z,8.94
2019-01-17T02:56:44.732Z,8.32
2019-01-17T02:59:14.742Z,8.86
2019-01-17T03:01:44.719Z,8.07
2019-01-17T03:04:14.640Z,8.41
2019-01-17T03:06:44.538Z,8.42
2019-01-17T03:09:14.418Z,8.47
2019-01-17T03:11:44.405Z,8.41
2019-01-17T03:14:14.269Z,8.20
2019-01-17T03:16:44.249Z,8.14
2019-01-17T03:19:14.277Z,8.03
2019-01-17T03:21:44.292Z,8.51
2019-01-17T03:24:14.298Z,7.95
2019-01-17T03:26:44.273Z,7.84
2019-01-17T03:29:14.272Z,8.15
2019-01-17T03:31:44.230Z,8.12
2019-01-17T03:34:14.166Z,7.80
2019-01-17T03:36:44.195Z,7.92
2019-01-17T03:39:14.167Z,8.19
2019-01-17T03:41:44.161Z,8.21
2019-01-17T03:44:14.124Z,8.05
2019-01-17T03:46:44.057Z,8.03
2019-01-17T03:49:14.085Z,8.18
2019-01-17T03:51:44.135Z,8.54
2019-01-17T03:54:14.209Z,8.41
2019-01-17T03:56:44.099Z,7.95
2019-01-17T03:59:14.110Z,7.90
2019-01-17T04:01:44.085Z,7.91
2019-01-17T04:04:14.074Z,8.07
2019-01-17T04:06:43.885Z,8.00
2019-01-17T04:09:13.918Z,8.21
2019-01-17T04:11:43.894Z,7.94
2019-01-17T04:14:13.873Z,8.21
2019-01-17T04:16:43.827Z,8.23
2019-01-17T04:19:13.769Z,7.95
2019-01-17T04:21:43.649Z,8.14
2019-01-17T04:24:13.579Z,8.08
2019-01-17T04:26:43.550Z,7.92
2019-01-17T04:29:13.473Z,7.95
2019-01-17T04:31:43.464Z,7.78
2019-01-17T04:34:13.439Z,8.03
2019-01-17T04:36:43.370Z,8.15
2019-01-17T04:39:13.324Z,7.91
2019-01-17T04:41:43.316Z,7.90
2019-01-17T04:44:13.189Z,7.77
2019-01-17T04:46:43.086Z,8.41
2019-01-17T04:49:13.130Z,8.12
2019-01-17T04:51:43.028Z,8.40
2019-01-17T04:54:12.993Z,7.98
2019-01-17T04:56:42.847Z,8.09
2019-01-17T04:59:32.047Z,8.03
2019-01-17T05:02:02.001Z,8.12
2019-01-17T05:04:32.126Z,8.22
2019-01-17T05:07:02.137Z,7.86
2019-01-17T05:09:32.149Z,7.91
2019-01-17T05:12:02.058Z,8.07
2019-01-17T05:14:31.871Z,8.17
2019-01-17T05:17:01.798Z,8.48
2019-01-17T05:19:31.724Z,8.75
2019-01-17T05:22:01.662Z,8.16
2019-01-17T05:24:31.558Z,8.00
2019-01-17T05:27:01.580Z,7.98
2019-01-17T05:29:31.477Z,8.47
2019-01-17T05:32:01.603Z,8.17
2019-01-17T05:34:38.973Z,8.48
2019-01-17T05:37:03.374Z,8.43
2019-01-17T05:39:33.360Z,8.69
2019-01-17T05:42:03.641Z,8.70
2019-01-17T05:44:33.514Z,9.08
2019-01-17T05:47:03.341Z,8.88
2019-01-17T05:49:33.196Z,8.37
2019-01-17T05:52:03.265Z,8.37
2019-01-17T05:54:33.150Z,8.26
2019-01-17T05:57:03.018Z,8.52
2019-01-17T05:59:32.967Z,8.91
2019-01-17T06:02:02.888Z,8.92
2019-01-17T06:04:32.883Z,9.16
2019-01-17T06:07:02.896Z,9.07
2019-01-17T06:09:32.756Z,8.81
2019-01-17T06:12:02.635Z,8.92
2019-01-17T06:14:32.753Z,8.57
2019-01-17T06:17:02.846Z,8.40
2019-01-17T06:19:32.672Z,8.27
2019-01-17T06:22:02.704Z,8.37
2019-01-17T06:24:32.711Z,8.32
2019-01-17T06:27:02.651Z,8.12
2019-01-17T06:29:32.616Z,8.25
2019-01-17T06:32:02.584Z,8.24
2019-01-17T06:34:32.565Z,8.23
2019-01-17T06:37:02.536Z,8.03
2019-01-17T06:39:32.487Z,7.75
2019-01-17T06:42:02.522Z,8.19
2019-01-17T06:44:32.464Z,8.67
2019-01-17T06:47:02.515Z,8.48
2019-01-17T06:49:32.446Z,8.88
2019-01-17T06:52:02.538Z,8.92
2019-01-17T06:54:32.572Z,8.78
2019-01-17T06:57:02.589Z,8.67
2019-01-17T06:59:32.526Z,8.77
2019-01-17T07:02:02.433Z,9.00
2019-01-17T07:04:32.388Z,8.99
2019-01-17T07:07:02.345Z,8.92
2019-01-17T07:09:32.356Z,8.89
2019-01-17T07:12:02.375Z,9.00
2019-01-17T07:14:32.293Z,9.21
2019-01-17T07:17:02.141Z,9.18
2019-01-17T07:19:31.997Z,8.97
2019-01-17T07:22:01.902Z,9.01
2019-01-17T07:24:31.762Z,8.89
2019-01-17T07:27:01.648Z,9.16
2019-01-17T07:29:31.690Z,9.26
2019-01-17T07:32:01.679Z,9.41
2019-01-17T07:34:31.693Z,9.71
2019-01-17T07:37:01.668Z,9.96
2019-01-17T07:39:32.139Z,9.89
2019-01-17T07:42:02.059Z,9.95
2019-01-17T07:44:32.077Z,9.89
2019-01-17T07:47:01.994Z,10.08
2019-01-17T07:49:31.900Z,10.07
2019-01-17T07:52:01.889Z,10.18
2019-01-17T07:54:31.827Z,10.46
2019-01-17T07:57:01.871Z,10.75
2019-01-17T07:59:31.777Z,10.82
2019-01-17T08:02:01.746Z,10.73
2019-01-17T08:04:31.834Z,10.66
2019-01-17T08:07:01.782Z,10.91
2019-01-17T08:09:31.800Z,10.74
2019-01-17T08:12:05.049Z,10.43
2019-01-17T08:14:33.486Z,10.40
2019-01-17T08:17:04.578Z,10.18
2019-01-17T08:19:34.579Z,10.72
2019-01-17T08:22:04.668Z,10.83
2019-01-17T08:24:34.570Z,11.14
2019-01-17T08:27:06.208Z,11.15
2019-01-17T08:29:36.266Z,11.20
2019-01-17T08:32:06.199Z,11.18
2019-01-17T08:34:36.862Z,11.09
2019-01-17T08:37:06.848Z,11.18
2019-01-17T08:39:36.730Z,11.27
2019-01-17T08:42:06.751Z,11.25
2019-01-17T08:44:36.739Z,11.10
2019-01-17T08:47:06.762Z,11.24
2019-01-17T08:49:36.596Z,11.29
2019-01-17T08:52:06.622Z,11.14
2019-01-17T08:54:36.591Z,11.54
2019-01-17T08:57:06.495Z,11.75
2019-01-17T08:59:36.424Z,11.93
2019-01-17T09:02:06.464Z,12.22
2019-01-17T09:04:36.436Z,11.61
2019-01-17T09:07:06.537Z,12.02
2019-01-17T09:09:36.481Z,12.29
2019-01-17T09:12:06.465Z,12.43
2019-01-17T09:14:36.489Z,12.54
2019-01-17T09:17:06.410Z,12.74
2019-01-17T09:19:36.424Z,12.56
2019-01-17T09:22:06.381Z,12.79
2019-01-17T09:24:36.377Z,13.21
2019-01-17T09:27:06.272Z,13.02
2019-01-17T09:29:36.312Z,13.68
2019-01-17T09:32:06.317Z,13.71
2019-01-17T09:34:36.186Z,13.67
2019-01-17T09:37:06.225Z,13.16
2019-01-17T09:39:36.204Z,13.25
2019-01-17T09:42:06.214Z,13.28
2019-01-17T09:44:36.063Z,13.17
2019-01-17T09:47:06.043Z,13.35
2019-01-17T09:49:35.889Z,13.64
2019-01-17T09:52:05.907Z,13.42
2019-01-17T09:54:35.918Z,12.99
2019-01-17T09:57:05.946Z,13.20
2019-01-17T09:59:35.919Z,13.26
2019-01-17T10:02:05.951Z,13.19
2019-01-17T10:04:36.451Z,13.01
2019-01-17T10:07:06.518Z,13.29
2019-01-17T10:09:36.493Z,13.22
2019-01-17T10:12:06.494Z,13.90
2019-01-17T10:14:36.521Z,13.57
2019-01-17T10:17:46.391Z,13.05
2019-01-17T10:20:53.875Z,13.21
2019-01-17T10:23:49.888Z,13.24
2019-01-17T10:26:48.640Z,13.29
2019-01-17T10:30:18.935Z,13.50
2019-01-17T10:33:25.401Z,12.64
2019-01-17T10:36:21.276Z,13.57
2019-01-17T10:39:01.000Z,12.86
2019-01-17T10:42:02.565Z,13.40
2019-01-17T10:44:41.382Z,12.98
2019-01-17T10:47:43.485Z,13.80
2019-01-17T10:50:34.666Z,13.02
2019-01-17T10:53:21.610Z,12.76
2019-01-17T10:56:41.616Z,12.45
2019-01-17T10:59:45.399Z,12.10
2019-01-17T11:02:58.378Z,12.13
2019-01-17T11:05:46.471Z,11.90
2019-01-17T11:09:00.568Z,11.92
2019-01-17T11:11:48.833Z,11.92
2019-01-17T11:15:11.862Z,11.73
2019-01-17T11:18:23.137Z,11.75
2019-01-17T11:21:37.537Z,12.14
2019-01-17T11:24:22.263Z,12.57
2019-01-17T11:27:36.663Z,13.24
2019-01-17T11:30:25.832Z,13.38
2019-01-17T11:33:33.319Z,14.18
2019-01-17T11:36:29.040Z,12.77
2019-01-17T11:39:19.316Z,13.02
2019-01-17T11:42:21.490Z,12.47
2019-01-17T11:45:41.514Z,12.08
2019-01-17T11:48:31.702Z,12.16
2019-01-17T11:51:28.866Z,11.40
2019-01-17T11:54:14.398Z,12.25
2019-01-17T11:57:30.056Z,11.87
2019-01-17T12:00:39.598Z,12.11
2019-01-17T12:03:18.228Z,13.11
2019-01-17T12:05:49.313Z,11.70
2019-01-17T12:08:19.341Z,11.59
2019-01-17T12:10:49.297Z,11.88
2019-01-17T12:13:19.208Z,11.60
2019-01-17T12:15:49.163Z,11.63
2019-01-17T12:18:19.109Z,11.15
2019-01-17T12:20:49.090Z,11.69
2019-01-17T12:23:18.998Z,11.31
2019-01-17T12:25:48.976Z,11.45
2019-01-17T12:28:19.035Z,11.35
2019-01-17T12:30:48.961Z,11.33
2019-01-17T12:33:18.994Z,11.15
2019-01-17T12:35:48.903Z,11.04
2019-01-17T12:38:18.946Z,11.15
2019-01-17T12:40:48.906Z,10.65
2019-01-17T12:43:18.930Z,10.78
2019-01-17T12:45:48.973Z,10.96
2019-01-17T12:48:18.893Z,10.99
2019-01-17T12:50:49.091Z,10.87
2019-01-17T12:53:19.066Z,10.91
2019-01-17T12:55:50.026Z,10.67
2019-01-17T12:58:19.925Z,11.17
2019-01-17T13:00:49.889Z,11.13
2019-01-17T13:03:19.866Z,10.28
2019-01-17T13:05:49.970Z,10.43
2019-01-17T13:08:19.885Z,10.07
2019-01-17T13:10:49.943Z,10.15
2019-01-17T13:13:19.831Z,9.95
2019-01-17T13:15:49.792Z,10.14
2019-01-17T13:18:19.696Z,10.07
2019-01-17T13:20:49.594Z,9.90
2019-01-17T13:23:19.611Z,10.21
2019-01-17T13:25:49.595Z,10.18
2019-01-17T13:28:19.556Z,9.64
2019-01-17T13:30:49.502Z,9.99
2019-01-17T13:33:20.984Z,9.77
2019-01-17T13:35:51.145Z,9.36
2019-01-17T13:38:21.105Z,9.75
2019-01-17T13:40:51.109Z,9.24
2019-01-17T13:43:22.172Z,9.48
2019-01-17T13:45:52.159Z,9.34
2019-01-17T13:48:22.104Z,8.97
2019-01-17T13:50:52.075Z,9.21
2019-01-17T13:53:22.069Z,9.11
2019-01-17T13:55:51.950Z,9.08
2019-01-17T13:58:21.783Z,9.07
2019-01-17T14:00:51.804Z,9.16
2019-01-17T14:03:21.853Z,9.40
2019-01-17T14:05:51.989Z,9.32
2019-01-17T14:08:21.998Z,8.87
2019-01-17T14:10:52.055Z,9.33
2019-01-17T14:13:22.073Z,8.92
2019-01-17T14:15:52.029Z,8.78
2019-01-17T14:18:27.724Z,8.96
2019-01-17T14:20:53.798Z,8.83
2019-01-17T14:23:23.827Z,9.42
2019-01-17T14:25:53.851Z,8.92
2019-01-17T14:28:23.879Z,8.99
2019-01-17T14:30:54.047Z,9.13
2019-01-17T14:33:24.114Z,8.55
2019-01-17T14:35:54.056Z,8.72
2019-01-17T14:38:23.947Z,8.99
2019-01-17T14:40:53.857Z,9.31
2019-01-17T14:43:23.885Z,8.77
2019-01-17T14:45:53.759Z,8.62
2019-01-17T14:48:23.630Z,8.82
2019-01-17T14:50:53.617Z,8.67
2019-01-17T14:53:23.677Z,8.43
2019-01-17T14:55:53.569Z,8.59
2019-01-17T14:58:23.516Z,8.36
2019-01-17T15:00:53.488Z,8.16
2019-01-17T15:03:23.509Z,8.17
2019-01-17T15:05:53.479Z,8.34
2019-01-17T15:08:24.351Z,8.24
2019-01-17T15:10:54.284Z,8.18
2019-01-17T15:13:24.194Z,8.39
2019-01-17T15:15:54.133Z,8.25
2019-01-17T15:18:24.033Z,8.17
2019-01-17T15:20:53.995Z,8.26
2019-01-17T15:23:23.904Z,8.37
2019-01-17T15:25:53.859Z,8.08
2019-01-17T15:28:23.863Z,8.38
2019-01-17T15:30:53.910Z,8.40
2019-01-17T15:33:23.851Z,8.43
2019-01-17T15:35:53.758Z,7.89
2019-01-17T15:38:23.741Z,8.29
2019-01-17T15:40:53.718Z,8.45
2019-01-17T15:43:23.671Z,7.67
2019-01-17T15:45:53.637Z,7.83
2019-01-17T15:48:23.677Z,7.62
2019-01-17T15:50:53.668Z,7.71
2019-01-17T15:53:23.690Z,8.07
2019-01-17T15:56:12.777Z,8.27
2019-01-17T15:58:42.721Z,8.12
2019-01-17T16:01:12.701Z,7.55
2019-01-17T16:03:42.773Z,8.08
2019-01-17T16:06:13.012Z,8.35
2019-01-17T16:08:42.896Z,7.79
2019-01-17T16:11:12.896Z,7.80
2019-01-17T16:13:42.910Z,7.83
2019-01-17T16:16:12.940Z,8.23
2019-01-17T16:18:42.787Z,8.24
2019-01-17T16:21:12.809Z,8.13
2019-01-17T16:23:42.710Z,8.20
2019-01-17T16:26:12.573Z,7.65
2019-01-17T16:28:42.530Z,7.68
2019-01-17T16:31:12.426Z,7.52
2019-01-17T16:33:42.451Z,7.61
2019-01-17T16:36:12.264Z,8.07
2019-01-17T16:38:42.314Z,8.16
2019-01-17T16:41:12.238Z,7.73
2019-01-17T16:43:42.266Z,7.74
2019-01-17T16:46:12.343Z,8.12
2019-01-17T16:48:42.359Z,7.69
2019-01-17T16:51:12.332Z,7.96
2019-01-17T16:53:42.301Z,8.02
2019-01-17T16:56:12.316Z,7.79
2019-01-17T16:58:42.269Z,7.82
2019-01-17T17:01:12.278Z,8.08
2019-01-17T17:03:42.123Z,7.81
2019-01-17T17:06:12.140Z,7.83
2019-01-17T17:08:45.006Z,7.64
2019-01-17T17:11:15.079Z,7.48
2019-01-17T17:13:45.096Z,7.74
2019-01-17T17:16:15.158Z,7.01
2019-01-17T17:18:45.065Z,7.57
2019-01-17T17:21:15.159Z,7.63
2019-01-17T17:23:45.109Z,7.63
2019-01-17T17:26:16.016Z,7.57
2019-01-17T17:28:46.036Z,7.50
2019-01-17T17:31:16.034Z,7.30
2019-01-17T17:33:45.910Z,7.28
2019-01-17T17:36:15.743Z,7.81
2019-01-17T17:38:45.763Z,7.88
2019-01-17T17:41:15.751Z,7.50
2019-01-17T17:43:45.628Z,7.77
2019-01-17T17:46:15.627Z,7.75
2019-01-17T17:48:45.479Z,7.71
2019-01-17T17:51:15.506Z,7.71
2019-01-17T17:53:45.367Z,7.67
2019-01-17T17:56:15.264Z,7.42
2019-01-17T17:58:45.295Z,7.71
2019-01-17T18:01:23.643Z,7.58
2019-01-17T18:03:53.713Z,7.77
2019-01-17T18:06:23.746Z,7.80
2019-01-17T18:08:53.781Z,7.54
2019-01-17T18:11:23.806Z,7.39
2019-01-17T18:13:53.886Z,7.61
2019-01-17T18:16:23.868Z,7.83
2019-01-17T18:18:54.117Z,7.97
2019-01-17T18:21:24.109Z,7.97
2019-01-17T18:23:54.142Z,7.86
2019-01-17T18:26:24.102Z,7.44
2019-01-17T18:28:54.216Z,7.32
2019-01-17T18:31:24.117Z,7.14
2019-01-17T18:33:55.303Z,7.30
2019-01-17T18:36:25.299Z,7.24
2019-01-17T18:38:56.592Z,7.56
2019-01-17T18:41:26.568Z,7.47
2019-01-17T18:43:56.729Z,7.13
2019-01-17T18:46:26.763Z,7.05
2019-01-17T18:48:56.806Z,7.72
2019-01-17T18:51:26.823Z,7.24
2019-01-17T18:53:56.891Z,7.53
2019-01-17T18:56:27.015Z,7.25
2019-01-17T18:58:57.075Z,6.95
2019-01-17T19:01:27.095Z,6.94
2019-01-17T19:03:57.098Z,7.18
2019-01-17T19:06:27.064Z,7.56
2019-01-17T19:08:57.158Z,7.43
2019-01-17T19:11:27.171Z,7.24
2019-01-17T19:13:57.201Z,6.94
2019-01-17T19:16:27.197Z,6.65
2019-01-17T19:18:57.158Z,7.32
2019-01-17T19:21:27.132Z,6.86
2019-01-17T19:23:57.191Z,6.70
2019-01-17T19:26:27.254Z,6.92
2019-01-17T19:28:57.342Z,6.69
2019-01-17T19:31:27.355Z,6.81
2019-01-17T19:33:57.413Z,6.85
2019-01-17T19:36:27.393Z,7.31
2019-01-17T19:38:57.548Z,6.86
2019-01-17T19:41:27.489Z,6.79
2019-01-17T19:43:57.498Z,6.60
2019-01-17T19:46:27.612Z,7.00
2019-01-17T19:48:57.707Z,6.76
2019-01-17T19:51:27.729Z,6.82
2019-01-17T19:53:57.746Z,7.04
2019-01-17T19:56:27.694Z,7.38
2019-01-17T19:58:57.611Z,7.12
2019-01-17T20:01:27.686Z,6.80
2019-01-17T20:03:57.664Z,6.89
2019-01-17T20:06:27.669Z,7.21
2019-01-17T20:08:57.940Z,6.85
2019-01-17T20:11:27.832Z,6.66
2019-01-17T20:13:57.720Z,7.00
2019-01-17T20:16:27.718Z,6.80
2019-01-17T20:18:57.713Z,7.22
2019-01-17T20:21:27.727Z,6.81
2019-01-17T20:23:58.658Z,6.85
2019-01-17T20:26:28.655Z,6.76
2019-01-17T20:28:58.617Z,6.95
2019-01-17T20:31:28.519Z,6.84
2019-01-17T20:33:58.467Z,6.88
2019-01-17T20:36:28.495Z,6.99
2019-01-17T20:38:58.545Z,6.66
2019-01-17T20:41:28.475Z,6.50
2019-01-17T20:43:58.595Z,6.88
2019-01-17T20:46:28.591Z,6.90
2019-01-17T20:48:58.510Z,6.88
2019-01-17T20:51:28.374Z,6.46
2019-01-17T20:53:58.453Z,6.42
2019-01-17T20:56:28.346Z,6.62
2019-01-17T20:58:58.267Z,7.35
2019-01-17T21:01:45.561Z,7.33
2019-01-17T21:04:16.027Z,6.52
2019-01-17T21:06:46.050Z,6.67
2019-01-17T21:09:16.006Z,6.90
2019-01-17T21:11:45.966Z,6.30
2019-01-17T21:14:15.965Z,6.00
2019-01-17T21:16:45.952Z,6.32
2019-01-17T21:19:16.013Z,6.31
2019-01-17T21:21:45.993Z,6.16
2019-01-17T21:24:15.992Z,5.89
2019-01-17T21:26:45.925Z,5.92
2019-01-17T21:29:15.783Z,6.21
2019-01-17T21:31:45.764Z,6.14
2019-01-17T21:34:15.977Z,5.78
2019-01-17T21:36:45.937Z,5.91
2019-01-17T21:39:15.773Z,5.93
2019-01-17T21:41:45.755Z,5.58
2019-01-17T21:44:15.603Z,5.74
2019-01-17T21:46:45.580Z,5.96
2019-01-17T21:49:15.480Z,5.73
2019-01-17T21:51:45.420Z,5.86
2019-01-17T21:54:15.384Z,5.79
2019-01-17T21:56:45.544Z,5.86
2019-01-17T21:59:15.433Z,5.72
2019-01-17T22:01:45.517Z,5.47
2019-01-17T22:04:15.530Z,5.67
2019-01-17T22:06:53.343Z,5.57
2019-01-17T22:09:23.318Z,5.72
2019-01-17T22:11:53.252Z,5.53
2019-01-17T22:14:23.249Z,5.88
2019-01-17T22:16:53.276Z,5.49
2019-01-17T22:19:23.170Z,4.89
2019-01-17T22:21:53.072Z,4.34
2019-01-17T22:24:23.165Z,4.39
2019-01-17T22:26:53.177Z,4.49
2019-01-17T22:29:23.147Z,4.50
2019-01-17T22:31:53.014Z,4.58
2019-01-17T22:34:23.069Z,4.31
2019-01-17T22:36:53.083Z,4.73
2019-01-17T22:39:23.006Z,4.54
2019-01-17T22:41:52.946Z,4.39
2019-01-17T22:44:23.064Z,4.65
2019-01-17T22:46:53.068Z,4.43
2019-01-17T22:49:23.040Z,4.71
2019-01-17T22:51:53.147Z,4.76
2019-01-17T22:54:23.066Z,5.00
2019-01-17T22:56:52.999Z,4.89
2019-01-17T22:59:22.980Z,4.80
2019-01-17T23:01:53.002Z,4.71
2019-01-17T23:04:22.896Z,5.29
2019-01-17T23:06:52.962Z,5.64
2019-01-17T23:09:23.012Z,5.41
2019-01-17T23:11:52.986Z,5.16
2019-01-17T23:14:22.946Z,5.66
2019-01-17T23:16:52.791Z,5.46
2019-01-17T23:19:22.797Z,4.87
2019-01-17T23:21:52.765Z,5.43
2019-01-17T23:24:22.730Z,5.22
2019-01-17T23:26:52.603Z,5.33
2019-01-17T23:29:22.506Z,5.06
2019-01-17T23:31:52.588Z,4.99
2019-01-17T23:34:22.569Z,5.05
2019-01-17T23:36:52.549Z,5.39
2019-01-17T23:39:22.437Z,5.06
2019-01-17T23:41:52.398Z,5.60
2019-01-17T23:44:22.280Z,5.61
2019-01-17T23:46:52.273Z,5.64
2019-01-17T23:49:22.228Z,5.34
2019-01-17T23:51:52.149Z,5.55
2019-01-17T23:54:22.040Z,5.52
2019-01-17T23:56:52.009Z,5.84
2019-01-17T23:59:22.688Z,6.01
